Terminal Aerodrome Forecast
Issued by NWS

Home | Current Version | Previous Version | Text Only | Print | Product List | Glossary Off
Versions: 1 2 3 4 5 6 7 8 9 10 11 12 13 14 15 16

000
FTUS43 KICT 250653 AAA
TAFSLN
TAF AMD
KSLN 250653Z 2507/2606 20009KT P6SM VCSH SCT040 BKN080
      TEMPO 2507/2510 -RA
     FM251000 27008KT P6SM SCT020 BKN035
     FM251600 34014KT P6SM SCT050 BKN100
     FM260100 06014G20KT P6SM SCT100=

USA.gov is the U.S. government's official web portal to all federal, state and local government web resources and services.